In Rescue
 
Open Full Screen Window  High Contrast Mode
August 20, 2019 5:40 AM PDT
Weather Information
Wind Direction
  ---
Wind Speed
  00 kt (0 mph)
Wind Gust
  00 kt (0 mph)
Altimeter
30.01 in
Visibility
10 SM
Temperature
16° C
61° F
Dewpoint
13° C
55° F
Humidity
83%
1hr Rain Fall
00.00 in.
24hr Rain Fall
00.00 in.
Sky Condition
Broken @ 1,100 ft
MVFR

METAR KCVH 201240Z AUTO 00000KT 10SM BKN011 16/13 A3001 RMK A01

FAA Disclaimer: The data displayed is for advisory purposes only and is not to be used for flight planning or operations.